createdAt,value
2019-04-23T00:02:39.341Z,7.07
2019-04-23T00:05:10.748Z,7.43
2019-04-23T00:07:56.182Z,7.47
2019-04-23T00:12:49.459Z,6.20
2019-04-23T00:15:10.635Z,7.73
2019-04-23T00:23:00.298Z,7.03
2019-04-23T00:28:09.503Z,7.57
2019-04-23T00:33:08.205Z,7.60
2019-04-23T00:35:41.737Z,6.67
2019-04-23T00:38:12.091Z,6.47
2019-04-23T00:40:39.961Z,6.17
2019-04-23T00:43:09.134Z,6.20
2019-04-23T00:48:26.117Z,6.97
2019-04-23T00:50:52.878Z,7.70
2019-04-23T00:53:22.080Z,6.70
2019-04-23T00:56:03.121Z,6.47
2019-04-23T01:00:57.864Z,6.17
2019-04-23T01:03:29.459Z,6.30
2019-04-23T01:06:15.137Z,6.57
2019-04-23T01:08:45.528Z,5.67
2019-04-23T01:11:18.127Z,5.67
2019-04-23T01:13:48.974Z,7.20
2019-04-23T01:16:14.984Z,5.93
2019-04-23T01:18:58.257Z,5.53
2019-04-23T01:21:22.284Z,5.77
2019-04-23T01:24:14.191Z,5.30
2019-04-23T01:29:57.940Z,5.37
2019-04-23T01:32:28.917Z,5.70
2019-04-23T01:35:09.725Z,5.60
2019-04-23T01:37:30.098Z,5.33
2019-04-23T01:39:57.625Z,5.17
2019-04-23T01:42:37.339Z,5.03
2019-04-23T01:45:11.777Z,5.17
2019-04-23T01:47:39.007Z,5.63
2019-04-23T01:52:49.901Z,5.00
2019-04-23T01:55:15.275Z,5.70
2019-04-23T01:57:46.919Z,4.97
2019-04-23T02:00:17.317Z,5.20
2019-04-23T02:02:51.033Z,5.03
2019-04-23T02:05:24.318Z,5.30
2019-04-23T02:07:50.928Z,5.17
2019-04-23T02:10:20.594Z,5.13
2019-04-23T02:12:55.635Z,5.27
2019-04-23T02:15:23.083Z,5.10
2019-04-23T02:20:44.365Z,5.03
2019-04-23T02:23:04.648Z,5.20
2019-04-23T02:25:40.779Z,5.07
2019-04-23T02:30:54.917Z,4.83
2019-04-23T02:33:23.818Z,4.83
2019-04-23T02:35:52.368Z,4.57
2019-04-23T02:38:40.604Z,4.70
2019-04-23T02:41:04.798Z,5.03
2019-04-23T02:45:59.112Z,4.80
2019-04-23T02:51:04.415Z,4.90
2019-04-23T02:56:04.365Z,4.93
2019-04-23T02:58:43.902Z,4.63
2019-04-23T03:01:15.264Z,4.67
2019-04-23T03:08:32.752Z,4.67
2019-04-23T03:11:09.802Z,5.00
2019-04-23T03:13:50.716Z,5.47
2019-04-23T03:21:33.831Z,4.63
2019-04-23T03:24:13.395Z,5.00
2019-04-23T03:35:39.360Z,5.40
2019-04-23T03:39:40.141Z,5.23
2019-04-23T03:42:02.017Z,4.97
2019-04-23T03:47:04.061Z,5.47
2019-04-23T03:52:16.039Z,5.00
2019-04-23T03:57:15.712Z,5.07
2019-04-23T03:59:44.684Z,4.83
2019-04-23T04:02:20.737Z,5.10
2019-04-23T04:12:27.411Z,5.23
2019-04-23T04:14:44.408Z,5.67
2019-04-23T04:17:14.428Z,5.30
2019-04-23T04:19:47.690Z,5.20
2019-04-23T04:29:52.274Z,4.97
2019-04-23T04:32:17.472Z,5.00
2019-04-23T04:35:12.520Z,5.57
2019-04-23T04:37:48.527Z,5.53
2019-04-23T04:42:24.863Z,5.23
2019-04-23T04:47:36.104Z,4.80
2019-04-23T04:49:59.612Z,5.13
2019-04-23T04:52:43.749Z,5.50
2019-04-23T04:55:03.074Z,5.57
2019-04-23T04:57:36.515Z,5.73
2019-04-23T05:02:57.396Z,5.07
2019-04-23T05:18:03.602Z,5.70
2019-04-23T05:20:19.962Z,5.50
2019-04-23T05:23:00.443Z,5.20
2019-04-23T05:25:12.507Z,5.67
2019-04-23T05:30:29.234Z,5.60
2019-04-23T05:32:56.421Z,5.50
2019-04-23T05:35:42.491Z,5.33
2019-04-23T05:38:08.868Z,5.00
2019-04-23T05:40:37.242Z,5.20
2019-04-23T05:42:58.867Z,5.07
2019-04-23T05:50:40.813Z,5.27
2019-04-23T05:53:13.437Z,5.47
2019-04-23T05:55:46.201Z,5.30
2019-04-23T05:58:15.350Z,5.27
2019-04-23T06:00:45.868Z,5.00
2019-04-23T06:03:19.216Z,5.47
2019-04-23T06:05:49.709Z,4.90
2019-04-23T06:08:25.564Z,5.03
2019-04-23T06:13:19.192Z,5.07
2019-04-23T06:15:55.778Z,4.83
2019-04-23T06:18:28.540Z,4.87
2019-04-23T06:21:00.181Z,5.10
2019-04-23T06:23:38.220Z,5.03
2019-04-23T06:26:15.018Z,5.30
2019-04-23T06:28:24.655Z,4.33
2019-04-23T06:31:02.401Z,5.13
2019-04-23T06:33:35.553Z,4.53
2019-04-23T06:36:05.478Z,4.73
2019-04-23T06:41:00.809Z,4.90
2019-04-23T06:43:47.158Z,4.80
2019-04-23T06:46:13.364Z,4.10
2019-04-23T06:48:40.786Z,4.70
2019-04-23T06:51:20.152Z,4.50
2019-04-23T06:53:43.698Z,4.57
2019-04-23T06:56:19.170Z,4.50
2019-04-23T06:58:44.087Z,4.20
2019-04-23T07:01:17.633Z,4.10
2019-04-23T07:03:51.861Z,4.50
2019-04-23T07:06:23.312Z,4.67
2019-04-23T07:09:05.164Z,5.03
2019-04-23T07:13:58.320Z,4.20
2019-04-23T07:16:27.705Z,4.27
2019-04-23T07:19:07.773Z,4.43
2019-04-23T07:21:21.954Z,4.40
2019-04-23T07:24:05.700Z,4.80
2019-04-23T07:28:58.578Z,5.07
2019-04-23T07:31:37.969Z,4.53
2019-04-23T07:34:01.314Z,5.13
2019-04-23T07:36:36.166Z,4.50
2019-04-23T07:39:06.331Z,5.10
2019-04-23T07:41:56.017Z,4.87
2019-04-23T07:44:28.197Z,4.30
2019-04-23T07:47:03.953Z,4.57
2019-04-23T07:49:23.692Z,4.90
2019-04-23T07:52:03.711Z,4.97
2019-04-23T07:54:32.558Z,5.30
2019-04-23T07:57:08.903Z,4.13
2019-04-23T07:59:35.059Z,5.60
2019-04-23T08:02:06.150Z,4.17
2019-04-23T08:04:48.820Z,7.13
2019-04-23T08:07:09.618Z,4.93
2019-04-23T08:09:43.685Z,5.10
2019-04-23T08:12:11.613Z,4.63
2019-04-23T08:14:51.553Z,4.73
2019-04-23T08:17:12.318Z,5.17
2019-04-23T08:19:49.185Z,5.73
2019-04-23T08:24:56.591Z,4.70
2019-04-23T08:27:22.530Z,4.93
2019-04-23T08:29:58.475Z,4.90
2019-04-23T08:35:04.349Z,5.13
2019-04-23T08:37:51.211Z,4.63
2019-04-23T08:40:09.859Z,5.10
2019-04-23T08:42:58.169Z,5.13
2019-04-23T08:45:15.313Z,4.23
2019-04-23T08:47:43.676Z,4.80
2019-04-23T08:50:15.483Z,4.80
2019-04-23T08:52:54.019Z,5.10
2019-04-23T08:55:22.813Z,4.83
2019-04-23T08:57:42.680Z,4.30
2019-04-23T09:00:23.638Z,4.80
2019-04-23T09:02:54.037Z,4.70
2019-04-23T09:05:28.620Z,5.30
2019-04-23T09:08:01.542Z,4.83
2019-04-23T09:10:32.547Z,5.07
2019-04-23T09:13:10.108Z,5.00
2019-04-23T09:15:33.373Z,5.00
2019-04-23T09:22:55.470Z,5.03
2019-04-23T09:25:36.751Z,5.37
2019-04-23T09:27:59.426Z,5.30
2019-04-23T09:30:42.231Z,5.03
2019-04-23T09:33:28.261Z,4.93
2019-04-23T09:36:20.745Z,6.30
2019-04-23T09:38:55.936Z,4.83
2019-04-23T09:41:32.366Z,4.93
2019-04-23T09:43:58.515Z,5.00
2019-04-23T09:46:29.050Z,4.90
2019-04-23T09:49:09.577Z,4.70
2019-04-23T09:51:36.729Z,4.63
2019-04-23T09:54:12.844Z,5.10
2019-04-23T09:56:39.342Z,4.53
2019-04-23T09:59:15.662Z,6.13
2019-04-23T10:01:46.210Z,5.07
2019-04-23T10:03:57.652Z,4.10
2019-04-23T10:06:20.870Z,4.73
2019-04-23T10:08:50.008Z,4.87
2019-04-23T10:11:19.544Z,4.67
2019-04-23T10:13:48.371Z,4.93
2019-04-23T10:16:21.378Z,4.77
2019-04-23T10:18:49.214Z,4.67
2019-04-23T10:21:21.345Z,4.70
2019-04-23T10:23:51.673Z,5.43
2019-04-23T10:26:21.838Z,4.87
2019-04-23T10:28:53.997Z,4.70
2019-04-23T10:31:24.953Z,4.70
2019-04-23T10:33:55.980Z,4.87
2019-04-23T10:36:27.896Z,5.20
2019-04-23T10:39:03.548Z,4.67
2019-04-23T10:41:30.147Z,4.90
2019-04-23T10:44:04.967Z,5.73
2019-04-23T10:47:12.279Z,5.33
2019-04-23T10:54:57.633Z,5.07
2019-04-23T10:57:19.855Z,5.00
2019-04-23T10:59:47.283Z,4.97
2019-04-23T11:12:42.389Z,6.13
2019-04-23T11:17:46.525Z,5.40
2019-04-23T11:20:25.537Z,4.90
2019-04-23T11:22:46.090Z,5.60
2019-04-23T11:25:26.361Z,5.10
2019-04-23T11:27:48.971Z,5.53
2019-04-23T11:30:26.263Z,5.57
2019-04-23T11:43:01.794Z,4.60
2019-04-23T11:48:22.503Z,5.50
2019-04-23T11:51:10.459Z,4.97
2019-04-23T11:51:10.459Z,5.23
2019-04-23T11:53:01.168Z,5.93
2019-04-23T11:55:49.425Z,5.63
2019-04-23T11:58:14.999Z,5.60
2019-04-23T12:00:49.249Z,6.60
2019-04-23T12:03:02.643Z,5.00
2019-04-23T12:06:09.414Z,6.07
2019-04-23T12:08:37.860Z,5.93
2019-04-23T12:12:23.846Z,5.47
2019-04-23T12:14:05.511Z,5.33
2019-04-23T12:16:38.381Z,5.30
2019-04-23T12:19:23.554Z,5.23
2019-04-23T12:21:41.741Z,5.10
2019-04-23T12:29:09.764Z,5.87
2019-04-23T12:31:38.513Z,5.60
2019-04-23T12:34:28.440Z,5.77
2019-04-23T12:36:46.913Z,5.30
2019-04-23T12:39:30.411Z,6.03
2019-04-23T12:42:01.720Z,6.00
2019-04-23T12:44:22.076Z,6.10
2019-04-23T12:47:05.421Z,5.33
2019-04-23T12:52:12.086Z,6.10
2019-04-23T12:54:53.895Z,6.07
2019-04-23T12:57:14.853Z,5.67
2019-04-23T12:59:45.579Z,6.23
2019-04-23T13:02:15.515Z,6.43
2019-04-23T13:04:49.080Z,5.90
2019-04-23T13:07:17.247Z,5.93
2019-04-23T13:09:55.724Z,5.73
2019-04-23T13:12:33.248Z,5.70
2019-04-23T13:17:36.584Z,5.53
2019-04-23T13:20:14.627Z,5.73
2019-04-23T13:22:36.577Z,5.50
2019-04-23T13:24:54.352Z,5.67
2019-04-23T13:27:41.678Z,5.93
2019-04-23T13:32:36.034Z,6.10
2019-04-23T13:40:09.435Z,5.50
2019-04-23T13:45:17.588Z,5.90
2019-04-23T13:50:18.009Z,6.20
2019-04-23T13:55:09.233Z,5.83
2019-04-23T13:58:03.227Z,5.73
2019-04-23T14:00:19.248Z,6.17
2019-04-23T14:02:42.369Z,6.07
2019-04-23T14:05:27.034Z,5.63
2019-04-23T14:08:01.178Z,6.00
2019-04-23T14:13:15.129Z,6.10
2019-04-23T14:15:53.913Z,6.43
2019-04-23T14:18:49.125Z,6.10
2019-04-23T14:23:14.483Z,7.03
2019-04-23T14:25:52.086Z,6.23
2019-04-23T14:30:53.918Z,6.50
2019-04-23T14:33:17.611Z,6.30
2019-04-23T14:35:45.448Z,6.40
2019-04-23T14:38:21.843Z,6.00
2019-04-23T14:43:21.917Z,6.33
2019-04-23T14:46:25.003Z,6.20
2019-04-23T14:48:23.593Z,6.07
2019-04-23T14:51:06.927Z,6.97
2019-04-23T14:53:46.374Z,7.07
2019-04-23T14:56:13.153Z,6.37
2019-04-23T14:58:42.607Z,6.40
2019-04-23T15:01:22.376Z,6.47
2019-04-23T15:06:19.858Z,6.40
2019-04-23T15:08:50.217Z,6.50
2019-04-23T15:24:09.220Z,6.00
2019-04-23T15:27:21.947Z,5.90
2019-04-23T15:28:43.156Z,6.20
2019-04-23T15:49:17.794Z,6.50
2019-04-23T15:54:17.900Z,6.90
2019-04-23T15:59:29.665Z,6.40
2019-04-23T16:01:39.495Z,6.53
2019-04-23T16:03:51.717Z,6.87
2019-04-23T16:06:24.581Z,6.87
2019-04-23T16:09:14.470Z,6.37
2019-04-23T16:11:48.103Z,6.27
2019-04-23T16:14:41.138Z,6.40
2019-04-23T16:16:58.417Z,6.87
2019-04-23T16:19:25.923Z,6.90
2019-04-23T16:22:00.218Z,6.83
2019-04-23T16:24:21.926Z,6.43
2019-04-23T16:27:01.286Z,7.20
2019-04-23T16:32:08.380Z,7.10
2019-04-23T16:34:34.282Z,7.30
2019-04-23T16:37:09.934Z,6.73
2019-04-23T16:39:44.037Z,7.27
2019-04-23T16:42:08.779Z,6.80
2019-04-23T16:44:48.700Z,6.73
2019-04-23T16:49:42.145Z,6.50
2019-04-23T16:52:14.732Z,6.80
2019-04-23T16:54:53.775Z,6.67
2019-04-23T16:57:40.273Z,6.27
2019-04-23T17:00:02.978Z,6.77
2019-04-23T17:02:21.178Z,7.00
2019-04-23T17:04:47.428Z,6.47
2019-04-23T17:07:12.059Z,7.27
2019-04-23T17:10:08.236Z,7.17
2019-04-23T17:12:17.952Z,7.57
2019-04-23T17:14:56.187Z,10.83
2019-04-23T17:17:23.036Z,8.83
2019-04-23T17:20:00.468Z,19.70
2019-04-23T17:22:38.635Z,8.80
2019-04-23T17:25:09.148Z,9.93
2019-04-23T17:27:34.850Z,7.70
2019-04-23T17:29:58.112Z,11.43
2019-04-23T17:32:28.252Z,7.80
2019-04-23T17:35:16.003Z,7.03
2019-04-23T17:43:01.630Z,7.10
2019-04-23T17:45:46.918Z,6.90
2019-04-23T17:48:17.261Z,7.27
2019-04-23T17:53:25.332Z,7.10
2019-04-23T18:03:30.371Z,7.57
2019-04-23T18:06:14.510Z,7.77
2019-04-23T18:08:35.671Z,7.07
2019-04-23T18:11:16.005Z,7.03
2019-04-23T18:13:36.864Z,7.87
2019-04-23T18:16:08.483Z,7.37
2019-04-23T18:18:47.896Z,8.13
2019-04-23T18:21:29.436Z,7.33
2019-04-23T18:24:16.836Z,7.60
2019-04-23T18:27:00.109Z,7.63
2019-04-23T18:32:13.135Z,7.23
2019-04-23T18:34:59.686Z,7.10
2019-04-23T18:37:17.844Z,7.57
2019-04-23T18:39:45.084Z,7.67
2019-04-23T18:42:46.362Z,7.27
2019-04-23T18:47:25.213Z,7.27
2019-04-23T18:52:30.042Z,7.40
2019-04-23T18:54:48.900Z,8.30
2019-04-23T18:57:13.027Z,7.30
2019-04-23T19:00:02.765Z,8.07
2019-04-23T19:02:37.920Z,8.47
2019-04-23T19:07:42.992Z,7.87
2019-04-23T19:13:14.149Z,7.13
2019-04-23T19:15:40.661Z,7.80
2019-04-23T19:18:12.637Z,7.73
2019-04-23T19:21:02.322Z,7.77
2019-04-23T19:23:25.515Z,7.00
2019-04-23T19:25:44.163Z,7.63
2019-04-23T19:28:38.172Z,7.90
2019-04-23T19:33:36.478Z,7.03
2019-04-23T19:36:17.811Z,7.67
2019-04-23T19:41:10.746Z,7.43
2019-04-23T19:43:44.212Z,7.27
2019-04-23T19:46:25.566Z,7.13
2019-04-23T19:48:48.550Z,7.67
2019-04-23T19:51:17.150Z,7.20
2019-04-23T19:54:13.345Z,7.77
2019-04-23T19:56:22.038Z,6.83
2019-04-23T20:06:42.424Z,7.70
2019-04-23T20:11:30.211Z,7.83
2019-04-23T20:21:29.986Z,7.87
2019-04-23T20:26:21.677Z,7.77
2019-04-23T20:34:31.311Z,8.30
2019-04-23T20:36:53.211Z,8.13
2019-04-23T20:47:08.580Z,7.07
2019-04-23T20:52:04.778Z,7.50
2019-04-23T20:57:43.567Z,7.90
2019-04-23T21:00:01.865Z,6.93
2019-04-23T21:02:54.757Z,7.30
2019-04-23T21:07:52.575Z,7.33
2019-04-23T21:10:19.933Z,7.43
2019-04-23T21:15:10.448Z,7.87
2019-04-23T21:22:45.000Z,7.83
2019-04-23T21:25:08.168Z,7.67
2019-04-23T21:27:55.497Z,7.33
2019-04-23T21:30:51.732Z,7.07
2019-04-23T21:36:12.625Z,7.50
2019-04-23T21:38:58.560Z,6.60
2019-04-23T21:41:29.333Z,7.60
2019-04-23T21:46:28.017Z,7.23
2019-04-23T21:49:14.679Z,7.10
2019-04-23T21:51:39.424Z,6.63
2019-04-23T21:56:31.223Z,7.57
2019-04-23T21:59:06.978Z,7.60
2019-04-23T22:01:45.003Z,6.53
2019-04-23T22:04:15.090Z,7.57
2019-04-23T22:06:47.832Z,6.80
2019-04-23T22:09:22.064Z,6.67
2019-04-23T22:11:57.012Z,6.17
2019-04-23T22:14:20.269Z,6.47
2019-04-23T22:19:23.118Z,6.50
2019-04-23T22:27:05.436Z,5.87
2019-04-23T22:29:33.465Z,6.27
2019-04-23T22:32:04.108Z,6.60
2019-04-23T22:34:38.926Z,6.00
2019-04-23T22:39:41.290Z,6.37
2019-04-23T22:42:22.325Z,6.13
2019-04-23T22:44:59.082Z,6.50
2019-04-23T22:49:56.815Z,6.17
2019-04-23T22:54:59.292Z,6.30
2019-04-23T22:57:18.542Z,6.23
2019-04-23T23:00:04.398Z,5.97
2019-04-23T23:05:12.198Z,5.87
2019-04-23T23:07:48.981Z,6.67
2019-04-23T23:10:22.247Z,6.27
2019-04-23T23:12:56.032Z,5.73
2019-04-23T23:15:08.035Z,5.83
2019-04-23T23:17:51.195Z,5.63
2019-04-23T23:22:51.496Z,5.97
2019-04-23T23:27:53.702Z,6.30
2019-04-23T23:32:49.162Z,5.80
2019-04-23T23:35:24.430Z,6.10
2019-04-23T23:37:50.492Z,6.07
2019-04-23T23:40:21.582Z,5.40
2019-04-23T23:43:05.733Z,6.00
2019-04-23T23:47:58.898Z,5.53
2019-04-23T23:50:27.021Z,6.50
2019-04-23T23:53:31.406Z,5.50
2019-04-23T23:55:30.106Z,5.77
2019-04-23T23:58:07.823Z,5.73
